sensor_id;sensor_type;location;lat;lon;timestamp;P1;durP1;ratioP1;P2;durP2;ratioP2
58208;SDS011;44006;52.028;4.696;2024-03-23T00:55:22;25.80;;;6.43;;
58208;SDS011;44006;52.028;4.696;2024-03-23T00:57:47;26.33;;;6.97;;
58208;SDS011;44006;52.028;4.696;2024-03-23T01:00:12;25.90;;;7.07;;
58208;SDS011;44006;52.028;4.696;2024-03-23T01:02:37;28.48;;;7.65;;
58208;SDS011;44006;52.028;4.696;2024-03-23T01:05:03;27.77;;;6.30;;
58208;SDS011;44006;52.028;4.696;2024-03-23T01:07:28;25.20;;;6.47;;
58208;SDS011;44006;52.028;4.696;2024-03-23T01:09:53;30.00;;;7.13;;
58208;SDS011;44006;52.028;4.696;2024-03-23T01:12:19;20.03;;;5.30;;
58208;SDS011;44006;52.028;4.696;2024-03-23T01:14:44;23.52;;;6.32;;
58208;SDS011;44006;52.028;4.696;2024-03-23T01:17:09;20.17;;;5.43;;
58208;SDS011;44006;52.028;4.696;2024-03-23T01:19:34;24.63;;;5.40;;
58208;SDS011;44006;52.028;4.696;2024-03-23T01:21:59;26.92;;;6.47;;
58208;SDS011;44006;52.028;4.696;2024-03-23T01:24:25;19.80;;;5.90;;
58208;SDS011;44006;52.028;4.696;2024-03-23T01:26:50;25.23;;;5.23;;
58208;SDS011;44006;52.028;4.696;2024-03-23T01:29:15;19.37;;;5.13;;
58208;SDS011;44006;52.028;4.696;2024-03-23T01:31:40;30.88;;;5.70;;
58208;SDS011;44006;52.028;4.696;2024-03-23T01:34:06;20.15;;;5.68;;
58208;SDS011;44006;52.028;4.696;2024-03-23T01:36:31;25.00;;;5.45;;
58208;SDS011;44006;52.028;4.696;2024-03-23T01:38:56;20.55;;;5.07;;
58208;SDS011;44006;52.028;4.696;2024-03-23T01:41:21;20.10;;;4.90;;
58208;SDS011;44006;52.028;4.696;2024-03-23T01:43:46;24.30;;;4.90;;
58208;SDS011;44006;52.028;4.696;2024-03-23T01:46:12;17.55;;;5.25;;
58208;SDS011;44006;52.028;4.696;2024-03-23T01:48:37;20.38;;;4.90;;
58208;SDS011;44006;52.028;4.696;2024-03-23T01:51:03;19.70;;;4.33;;
58208;SDS011;44006;52.028;4.696;2024-03-23T01:53:28;20.05;;;4.88;;
58208;SDS011;44006;52.028;4.696;2024-03-23T01:55:53;21.57;;;4.50;;
58208;SDS011;44006;52.028;4.696;2024-03-23T01:58:19;20.27;;;4.30;;
58208;SDS011;44006;52.028;4.696;2024-03-23T02:00:44;21.83;;;4.80;;
58208;SDS011;44006;52.028;4.696;2024-03-23T02:06:07;17.88;;;3.88;;
58208;SDS011;44006;52.028;4.696;2024-03-23T02:08:33;14.38;;;3.00;;
58208;SDS011;44006;52.028;4.696;2024-03-23T02:10:58;19.05;;;3.83;;
58208;SDS011;44006;52.028;4.696;2024-03-23T02:13:23;20.05;;;3.33;;
58208;SDS011;44006;52.028;4.696;2024-03-23T02:15:49;19.42;;;3.10;;
58208;SDS011;44006;52.028;4.696;2024-03-23T02:18:14;18.83;;;3.03;;
58208;SDS011;44006;52.028;4.696;2024-03-23T02:20:39;14.87;;;2.60;;
58208;SDS011;44006;52.028;4.696;2024-03-23T02:23:05;19.73;;;2.97;;
58208;SDS011;44006;52.028;4.696;2024-03-23T02:25:33;13.50;;;2.83;;
58208;SDS011;44006;52.028;4.696;2024-03-23T02:27:59;20.05;;;2.90;;
58208;SDS011;44006;52.028;4.696;2024-03-23T02:30:24;18.73;;;2.92;;
58208;SDS011;44006;52.028;4.696;2024-03-23T02:32:50;12.68;;;3.25;;
58208;SDS011;44006;52.028;4.696;2024-03-23T02:35:15;12.50;;;2.57;;
58208;SDS011;44006;52.028;4.696;2024-03-23T02:37:40;12.23;;;2.60;;
58208;SDS011;44006;52.028;4.696;2024-03-23T02:40:05;11.83;;;2.67;;
58208;SDS011;44006;52.028;4.696;2024-03-23T02:42:31;14.88;;;2.38;;
58208;SDS011;44006;52.028;4.696;2024-03-23T02:44:56;11.10;;;2.40;;
58208;SDS011;44006;52.028;4.696;2024-03-23T02:47:22;17.67;;;2.78;;
58208;SDS011;44006;52.028;4.696;2024-03-23T02:49:47;15.43;;;2.13;;
58208;SDS011;44006;52.028;4.696;2024-03-23T02:52:12;13.00;;;2.60;;
58208;SDS011;44006;52.028;4.696;2024-03-23T02:54:37;16.55;;;2.30;;
58208;SDS011;44006;52.028;4.696;2024-03-23T02:57:02;12.57;;;2.03;;
58208;SDS011;44006;52.028;4.696;2024-03-23T02:59:28;17.73;;;2.95;;
58208;SDS011;44006;52.028;4.696;2024-03-23T03:01:53;8.88;;;1.88;;
58208;SDS011;44006;52.028;4.696;2024-03-23T03:04:18;17.27;;;2.90;;
58208;SDS011;44006;52.028;4.696;2024-03-23T03:06:46;13.23;;;2.85;;
58208;SDS011;44006;52.028;4.696;2024-03-23T03:09:11;11.02;;;2.08;;
58208;SDS011;44006;52.028;4.696;2024-03-23T03:11:36;11.63;;;2.80;;
58208;SDS011;44006;52.028;4.696;2024-03-23T03:14:02;13.77;;;2.83;;
58208;SDS011;44006;52.028;4.696;2024-03-23T03:16:27;10.88;;;2.65;;
58208;SDS011;44006;52.028;4.696;2024-03-23T03:18:52;14.20;;;2.67;;
58208;SDS011;44006;52.028;4.696;2024-03-23T03:21:18;13.02;;;2.83;;
58208;SDS011;44006;52.028;4.696;2024-03-23T03:23:44;19.45;;;2.90;;
58208;SDS011;44006;52.028;4.696;2024-03-23T03:26:09;15.82;;;2.60;;
58208;SDS011;44006;52.028;4.696;2024-03-23T03:28:34;16.63;;;2.97;;
58208;SDS011;44006;52.028;4.696;2024-03-23T03:30:59;16.27;;;2.60;;
58208;SDS011;44006;52.028;4.696;2024-03-23T03:33:26;14.23;;;2.67;;
58208;SDS011;44006;52.028;4.696;2024-03-23T03:35:51;15.65;;;2.80;;
58208;SDS011;44006;52.028;4.696;2024-03-23T03:38:17;16.70;;;3.58;;
58208;SDS011;44006;52.028;4.696;2024-03-23T03:40:42;12.75;;;2.30;;
58208;SDS011;44006;52.028;4.696;2024-03-23T03:43:07;19.50;;;3.22;;
58208;SDS011;44006;52.028;4.696;2024-03-23T03:45:32;14.88;;;2.25;;
58208;SDS011;44006;52.028;4.696;2024-03-23T03:47:58;13.47;;;2.60;;
58208;SDS011;44006;52.028;4.696;2024-03-23T03:50:24;14.75;;;2.30;;
58208;SDS011;44006;52.028;4.696;2024-03-23T03:52:49;13.35;;;2.63;;
58208;SDS011;44006;52.028;4.696;2024-03-23T03:55:14;15.47;;;2.70;;
58208;SDS011;44006;52.028;4.696;2024-03-23T03:57:40;15.70;;;2.75;;
58208;SDS011;44006;52.028;4.696;2024-03-23T04:00:05;10.23;;;2.30;;
58208;SDS011;44006;52.028;4.696;2024-03-23T04:02:31;12.15;;;2.38;;
58208;SDS011;44006;52.028;4.696;2024-03-23T04:04:56;11.30;;;2.05;;
58208;SDS011;44006;52.028;4.696;2024-03-23T04:07:22;16.00;;;2.65;;
58208;SDS011;44006;52.028;4.696;2024-03-23T04:09:48;14.02;;;2.47;;
58208;SDS011;44006;52.028;4.696;2024-03-23T04:12:13;9.43;;;2.13;;
58208;SDS011;44006;52.028;4.696;2024-03-23T04:14:38;16.83;;;2.47;;
58208;SDS011;44006;52.028;4.696;2024-03-23T04:17:03;19.25;;;2.80;;
58208;SDS011;44006;52.028;4.696;2024-03-23T04:19:28;16.85;;;2.53;;
58208;SDS011;44006;52.028;4.696;2024-03-23T04:21:54;12.63;;;2.43;;
58208;SDS011;44006;52.028;4.696;2024-03-23T04:24:19;14.20;;;2.20;;
58208;SDS011;44006;52.028;4.696;2024-03-23T04:26:46;14.77;;;2.83;;
58208;SDS011;44006;52.028;4.696;2024-03-23T04:29:11;11.88;;;2.40;;
58208;SDS011;44006;52.028;4.696;2024-03-23T04:31:37;14.02;;;2.65;;
58208;SDS011;44006;52.028;4.696;2024-03-23T04:34:02;12.00;;;2.50;;
58208;SDS011;44006;52.028;4.696;2024-03-23T04:36:27;15.18;;;2.33;;
58208;SDS011;44006;52.028;4.696;2024-03-23T04:38:53;15.47;;;2.20;;
58208;SDS011;44006;52.028;4.696;2024-03-23T04:41:18;10.97;;;1.87;;
58208;SDS011;44006;52.028;4.696;2024-03-23T04:43:43;13.73;;;2.13;;
58208;SDS011;44006;52.028;4.696;2024-03-23T04:46:08;13.80;;;2.25;;
58208;SDS011;44006;52.028;4.696;2024-03-23T04:48:34;14.35;;;2.33;;
58208;SDS011;44006;52.028;4.696;2024-03-23T04:50:59;13.50;;;2.30;;
58208;SDS011;44006;52.028;4.696;2024-03-23T04:53:24;12.80;;;2.03;;
58208;SDS011;44006;52.028;4.696;2024-03-23T04:55:53;9.05;;;1.85;;
58208;SDS011;44006;52.028;4.696;2024-03-23T04:58:18;20.50;;;3.00;;
58208;SDS011;44006;52.028;4.696;2024-03-23T05:00:43;11.33;;;2.23;;
58208;SDS011;44006;52.028;4.696;2024-03-23T05:03:08;14.13;;;2.40;;
58208;SDS011;44006;52.028;4.696;2024-03-23T05:05:34;14.80;;;2.75;;
58208;SDS011;44006;52.028;4.696;2024-03-23T05:07:59;13.63;;;2.50;;
58208;SDS011;44006;52.028;4.696;2024-03-23T05:10:24;9.57;;;2.25;;
58208;SDS011;44006;52.028;4.696;2024-03-23T05:12:50;15.03;;;2.30;;
58208;SDS011;44006;52.028;4.696;2024-03-23T05:15:15;12.68;;;2.55;;
58208;SDS011;44006;52.028;4.696;2024-03-23T05:17:40;15.30;;;2.60;;
58208;SDS011;44006;52.028;4.696;2024-03-23T05:20:05;17.08;;;2.88;;
58208;SDS011;44006;52.028;4.696;2024-03-23T05:22:34;15.32;;;2.50;;
58208;SDS011;44006;52.028;4.696;2024-03-23T05:24:59;12.90;;;2.70;;
58208;SDS011;44006;52.028;4.696;2024-03-23T05:27:25;16.20;;;2.50;;
58208;SDS011;44006;52.028;4.696;2024-03-23T05:29:50;18.17;;;2.58;;
58208;SDS011;44006;52.028;4.696;2024-03-23T05:32:15;22.00;;;2.97;;
58208;SDS011;44006;52.028;4.696;2024-03-23T05:34:40;11.93;;;2.58;;
58208;SDS011;44006;52.028;4.696;2024-03-23T05:37:06;21.13;;;2.80;;
58208;SDS011;44006;52.028;4.696;2024-03-23T05:39:31;11.30;;;2.80;;
58208;SDS011;44006;52.028;4.696;2024-03-23T05:41:56;17.40;;;3.40;;
58208;SDS011;44006;52.028;4.696;2024-03-23T05:44:22;18.67;;;3.45;;
58208;SDS011;44006;52.028;4.696;2024-03-23T05:46:47;17.15;;;3.33;;
58208;SDS011;44006;52.028;4.696;2024-03-23T05:49:13;18.30;;;3.78;;
58208;SDS011;44006;52.028;4.696;2024-03-23T05:51:39;14.25;;;3.33;;
58208;SDS011;44006;52.028;4.696;2024-03-23T05:54:04;17.43;;;3.83;;
58208;SDS011;44006;52.028;4.696;2024-03-23T05:56:29;16.50;;;3.40;;
58208;SDS011;44006;52.028;4.696;2024-03-23T05:58:54;18.73;;;3.20;;
58208;SDS011;44006;52.028;4.696;2024-03-23T06:01:20;16.17;;;3.47;;
58208;SDS011;44006;52.028;4.696;2024-03-23T06:03:45;13.38;;;3.25;;
58208;SDS011;44006;52.028;4.696;2024-03-23T06:06:11;13.77;;;3.05;;
58208;SDS011;44006;52.028;4.696;2024-03-23T06:08:38;15.10;;;3.05;;
58208;SDS011;44006;52.028;4.696;2024-03-23T06:11:03;16.13;;;3.20;;
58208;SDS011;44006;52.028;4.696;2024-03-23T06:13:29;15.18;;;2.85;;
58208;SDS011;44006;52.028;4.696;2024-03-23T06:15:55;17.35;;;3.65;;
58208;SDS011;44006;52.028;4.696;2024-03-23T06:18:21;14.73;;;3.00;;
58208;SDS011;44006;52.028;4.696;2024-03-23T06:20:46;14.40;;;3.35;;
58208;SDS011;44006;52.028;4.696;2024-03-23T06:23:11;17.83;;;3.20;;
58208;SDS011;44006;52.028;4.696;2024-03-23T06:25:37;16.80;;;3.25;;
58208;SDS011;44006;52.028;4.696;2024-03-23T06:28:03;15.40;;;3.05;;
58208;SDS011;44006;52.028;4.696;2024-03-23T06:30:29;18.58;;;3.47;;
58208;SDS011;44006;52.028;4.696;2024-03-23T06:32:54;14.98;;;3.05;;
58208;SDS011;44006;52.028;4.696;2024-03-23T06:35:20;15.50;;;2.90;;
58208;SDS011;44006;52.028;4.696;2024-03-23T06:37:45;16.47;;;2.93;;
58208;SDS011;44006;52.028;4.696;2024-03-23T06:40:10;15.45;;;2.80;;
58208;SDS011;44006;52.028;4.696;2024-03-23T06:42:36;12.40;;;2.42;;
58208;SDS011;44006;52.028;4.696;2024-03-23T06:45:02;12.65;;;2.85;;
58208;SDS011;44006;52.028;4.696;2024-03-23T06:47:28;13.60;;;3.10;;
58208;SDS011;44006;52.028;4.696;2024-03-23T06:49:53;13.50;;;3.47;;
58208;SDS011;44006;52.028;4.696;2024-03-23T06:52:19;14.57;;;2.83;;
58208;SDS011;44006;52.028;4.696;2024-03-23T06:54:44;17.03;;;2.77;;
58208;SDS011;44006;52.028;4.696;2024-03-23T06:57:10;13.77;;;2.70;;
58208;SDS011;44006;52.028;4.696;2024-03-23T06:59:36;11.50;;;2.50;;
58208;SDS011;44006;52.028;4.696;2024-03-23T07:02:01;12.27;;;3.00;;
58208;SDS011;44006;52.028;4.696;2024-03-23T07:04:26;14.40;;;2.50;;
58208;SDS011;44006;52.028;4.696;2024-03-23T07:06:51;15.53;;;2.80;;
58208;SDS011;44006;52.028;4.696;2024-03-23T07:09:16;13.20;;;2.63;;
58208;SDS011;44006;52.028;4.696;2024-03-23T07:11:42;14.35;;;2.63;;
58208;SDS011;44006;52.028;4.696;2024-03-23T07:14:07;9.63;;;2.33;;
58208;SDS011;44006;52.028;4.696;2024-03-23T07:16:32;15.17;;;2.73;;
58208;SDS011;44006;52.028;4.696;2024-03-23T07:18:57;10.07;;;2.38;;
58208;SDS011;44006;52.028;4.696;2024-03-23T07:21:23;17.38;;;2.75;;
58208;SDS011;44006;52.028;4.696;2024-03-23T07:23:48;14.47;;;2.30;;
58208;SDS011;44006;52.028;4.696;2024-03-23T07:26:14;15.38;;;2.92;;
58208;SDS011;44006;52.028;4.696;2024-03-23T07:28:39;11.68;;;2.78;;
58208;SDS011;44006;52.028;4.696;2024-03-23T07:31:09;18.85;;;3.22;;
58208;SDS011;44006;52.028;4.696;2024-03-23T07:33:35;10.63;;;2.85;;
58208;SDS011;44006;52.028;4.696;2024-03-23T07:36:01;15.77;;;2.67;;
58208;SDS011;44006;52.028;4.696;2024-03-23T07:38:27;12.85;;;2.78;;
58208;SDS011;44006;52.028;4.696;2024-03-23T07:41:01;11.35;;;2.35;;
58208;SDS011;44006;52.028;4.696;2024-03-23T07:43:27;14.02;;;2.78;;
58208;SDS011;44006;52.028;4.696;2024-03-23T07:45:53;17.80;;;3.10;;
58208;SDS011;44006;52.028;4.696;2024-03-23T07:48:18;19.03;;;3.10;;
58208;SDS011;44006;52.028;4.696;2024-03-23T07:50:43;18.63;;;3.42;;
58208;SDS011;44006;52.028;4.696;2024-03-23T07:53:08;10.53;;;2.50;;
58208;SDS011;44006;52.028;4.696;2024-03-23T07:55:34;13.77;;;2.20;;
58208;SDS011;44006;52.028;4.696;2024-03-23T07:57:59;19.87;;;3.47;;
58208;SDS011;44006;52.028;4.696;2024-03-23T08:00:24;21.97;;;3.10;;
58208;SDS011;44006;52.028;4.696;2024-03-23T08:02:50;11.07;;;2.47;;
58208;SDS011;44006;52.028;4.696;2024-03-23T08:05:16;15.55;;;2.70;;
58208;SDS011;44006;52.028;4.696;2024-03-23T08:07:41;11.70;;;2.30;;
58208;SDS011;44006;52.028;4.696;2024-03-23T08:10:06;13.27;;;2.57;;
58208;SDS011;44006;52.028;4.696;2024-03-23T08:12:31;11.13;;;2.42;;
58208;SDS011;44006;52.028;4.696;2024-03-23T08:14:56;9.40;;;2.07;;
58208;SDS011;44006;52.028;4.696;2024-03-23T08:17:22;12.50;;;2.37;;
58208;SDS011;44006;52.028;4.696;2024-03-23T08:19:47;14.00;;;2.38;;
58208;SDS011;44006;52.028;4.696;2024-03-23T08:22:13;13.47;;;2.20;;
58208;SDS011;44006;52.028;4.696;2024-03-23T08:24:38;12.33;;;2.17;;
58208;SDS011;44006;52.028;4.696;2024-03-23T08:27:03;14.70;;;2.28;;
58208;SDS011;44006;52.028;4.696;2024-03-23T08:29:29;14.13;;;2.30;;
58208;SDS011;44006;52.028;4.696;2024-03-23T08:31:55;12.73;;;2.20;;
58208;SDS011;44006;52.028;4.696;2024-03-23T08:34:20;15.45;;;2.30;;
58208;SDS011;44006;52.028;4.696;2024-03-23T08:36:45;11.70;;;2.42;;
58208;SDS011;44006;52.028;4.696;2024-03-23T08:39:10;11.63;;;2.80;;
58208;SDS011;44006;52.028;4.696;2024-03-23T08:41:35;17.90;;;2.63;;
58208;SDS011;44006;52.028;4.696;2024-03-23T08:44:01;13.55;;;2.80;;
58208;SDS011;44006;52.028;4.696;2024-03-23T08:46:26;14.07;;;2.72;;
58208;SDS011;44006;52.028;4.696;2024-03-23T08:48:52;14.40;;;2.80;;
58208;SDS011;44006;52.028;4.696;2024-03-23T08:51:18;13.73;;;2.67;;
58208;SDS011;44006;52.028;4.696;2024-03-23T08:53:43;13.05;;;2.55;;
58208;SDS011;44006;52.028;4.696;2024-03-23T08:56:09;19.52;;;2.55;;
58208;SDS011;44006;52.028;4.696;2024-03-23T08:58:35;16.42;;;2.95;;
58208;SDS011;44006;52.028;4.696;2024-03-23T09:01:04;11.32;;;2.67;;
58208;SDS011;44006;52.028;4.696;2024-03-23T09:03:29;14.18;;;2.63;;
58208;SDS011;44006;52.028;4.696;2024-03-23T09:05:55;11.20;;;2.95;;
58208;SDS011;44006;52.028;4.696;2024-03-23T09:08:20;15.15;;;3.50;;
58208;SDS011;44006;52.028;4.696;2024-03-23T09:10:46;15.32;;;3.30;;
58208;SDS011;44006;52.028;4.696;2024-03-23T09:13:12;16.02;;;3.30;;
58208;SDS011;44006;52.028;4.696;2024-03-23T09:15:37;14.50;;;2.47;;
58208;SDS011;44006;52.028;4.696;2024-03-23T09:18:03;12.50;;;2.67;;
58208;SDS011;44006;52.028;4.696;2024-03-23T09:20:28;15.55;;;2.55;;
58208;SDS011;44006;52.028;4.696;2024-03-23T09:22:53;17.73;;;2.58;;
58208;SDS011;44006;52.028;4.696;2024-03-23T09:25:19;15.80;;;2.55;;
58208;SDS011;44006;52.028;4.696;2024-03-23T09:27:47;13.37;;;2.57;;
58208;SDS011;44006;52.028;4.696;2024-03-23T09:30:13;13.50;;;2.28;;
58208;SDS011;44006;52.028;4.696;2024-03-23T09:32:38;10.15;;;2.08;;
58208;SDS011;44006;52.028;4.696;2024-03-23T09:35:04;11.63;;;2.30;;
58208;SDS011;44006;52.028;4.696;2024-03-23T09:37:29;13.07;;;2.13;;
58208;SDS011;44006;52.028;4.696;2024-03-23T09:39:54;9.15;;;2.28;;
58208;SDS011;44006;52.028;4.696;2024-03-23T09:42:19;10.60;;;2.40;;
58208;SDS011;44006;52.028;4.696;2024-03-23T09:44:45;14.27;;;2.30;;
58208;SDS011;44006;52.028;4.696;2024-03-23T09:47:10;17.90;;;2.42;;
58208;SDS011;44006;52.028;4.696;2024-03-23T09:49:35;10.85;;;2.70;;
58208;SDS011;44006;52.028;4.696;2024-03-23T09:52:02;13.27;;;2.80;;
58208;SDS011;44006;52.028;4.696;2024-03-23T09:54:27;13.98;;;2.22;;
58208;SDS011;44006;52.028;4.696;2024-03-23T09:56:52;13.83;;;2.30;;
58208;SDS011;44006;52.028;4.696;2024-03-23T09:59:17;12.82;;;1.90;;
58208;SDS011;44006;52.028;4.696;2024-03-23T10:01:42;9.82;;;1.83;;
58208;SDS011;44006;52.028;4.696;2024-03-23T10:04:08;14.90;;;2.47;;
58208;SDS011;44006;52.028;4.696;2024-03-23T10:06:33;11.17;;;2.43;;
58208;SDS011;44006;52.028;4.696;2024-03-23T10:08:59;17.92;;;2.90;;
58208;SDS011;44006;52.028;4.696;2024-03-23T10:11:24;12.87;;;2.40;;
58208;SDS011;44006;52.028;4.696;2024-03-23T10:13:50;11.02;;;2.20;;
58208;SDS011;44006;52.028;4.696;2024-03-23T10:16:22;15.40;;;2.63;;
58208;SDS011;44006;52.028;4.696;2024-03-23T10:18:48;10.27;;;1.90;;
58208;SDS011;44006;52.028;4.696;2024-03-23T10:21:14;9.40;;;2.20;;
58208;SDS011;44006;52.028;4.696;2024-03-23T10:23:39;14.68;;;2.13;;
58208;SDS011;44006;52.028;4.696;2024-03-23T10:26:12;12.30;;;2.35;;
58208;SDS011;44006;52.028;4.696;2024-03-23T10:28:43;11.60;;;1.85;;
58208;SDS011;44006;52.028;4.696;2024-03-23T10:31:15;15.95;;;1.90;;
58208;SDS011;44006;52.028;4.696;2024-03-23T10:33:44;15.02;;;2.50;;
58208;SDS011;44006;52.028;4.696;2024-03-23T10:36:09;16.20;;;2.38;;
58208;SDS011;44006;52.028;4.696;2024-03-23T10:38:34;13.70;;;2.53;;
58208;SDS011;44006;52.028;4.696;2024-03-23T10:41:00;12.85;;;2.10;;
58208;SDS011;44006;52.028;4.696;2024-03-23T10:43:26;13.43;;;2.38;;
58208;SDS011;44006;52.028;4.696;2024-03-23T10:45:51;14.60;;;2.30;;
58208;SDS011;44006;52.028;4.696;2024-03-23T10:48:16;17.53;;;3.00;;
58208;SDS011;44006;52.028;4.696;2024-03-23T10:50:42;8.90;;;2.13;;
58208;SDS011;44006;52.028;4.696;2024-03-23T10:53:07;19.30;;;2.53;;
58208;SDS011;44006;52.028;4.696;2024-03-23T10:55:32;12.98;;;2.40;;
58208;SDS011;44006;52.028;4.696;2024-03-23T10:57:59;12.00;;;2.50;;
58208;SDS011;44006;52.028;4.696;2024-03-23T11:00:24;12.60;;;2.42;;
58208;SDS011;44006;52.028;4.696;2024-03-23T11:02:50;13.75;;;2.70;;
58208;SDS011;44006;52.028;4.696;2024-03-23T11:07:50;10.00;;;1.80;;
58208;SDS011;44006;52.028;4.696;2024-03-23T11:10:30;9.85;;;2.00;;
58208;SDS011;44006;52.028;4.696;2024-03-23T11:13:21;10.43;;;2.70;;
58208;SDS011;44006;52.028;4.696;2024-03-23T11:15:41;10.35;;;2.20;;
58208;SDS011;44006;52.028;4.696;2024-03-23T11:18:06;15.00;;;2.90;;
58208;SDS011;44006;52.028;4.696;2024-03-23T11:20:36;13.25;;;2.28;;
58208;SDS011;44006;52.028;4.696;2024-03-23T11:23:01;10.48;;;1.88;;
58208;SDS011;44006;52.028;4.696;2024-03-23T11:25:27;13.85;;;2.67;;
58208;SDS011;44006;52.028;4.696;2024-03-23T11:27:53;10.57;;;2.08;;
58208;SDS011;44006;52.028;4.696;2024-03-23T11:32:44;13.57;;;2.63;;
58208;SDS011;44006;52.028;4.696;2024-03-23T11:35:10;13.85;;;2.38;;
58208;SDS011;44006;52.028;4.696;2024-03-23T11:37:38;10.40;;;2.20;;
58208;SDS011;44006;52.028;4.696;2024-03-23T11:40:18;9.15;;;1.98;;
58208;SDS011;44006;52.028;4.696;2024-03-23T11:42:44;14.00;;;2.10;;
58208;SDS011;44006;52.028;4.696;2024-03-23T11:45:09;11.82;;;2.22;;
58208;SDS011;44006;52.028;4.696;2024-03-23T11:47:34;9.60;;;2.05;;
58208;SDS011;44006;52.028;4.696;2024-03-23T11:49:59;12.57;;;2.13;;
58208;SDS011;44006;52.028;4.696;2024-03-23T11:52:25;10.30;;;2.13;;
58208;SDS011;44006;52.028;4.696;2024-03-23T11:54:50;9.40;;;1.73;;
58208;SDS011;44006;52.028;4.696;2024-03-23T11:57:15;10.30;;;2.03;;
58208;SDS011;44006;52.028;4.696;2024-03-23T11:59:41;10.80;;;1.98;;
58208;SDS011;44006;52.028;4.696;2024-03-23T12:02:09;15.45;;;2.25;;
58208;SDS011;44006;52.028;4.696;2024-03-23T12:04:35;12.13;;;1.80;;
58208;SDS011;44006;52.028;4.696;2024-03-23T12:09:35;9.65;;;1.80;;
58208;SDS011;44006;52.028;4.696;2024-03-23T12:14:32;12.32;;;1.98;;
58208;SDS011;44006;52.028;4.696;2024-03-23T12:17:06;10.60;;;2.00;;
58208;SDS011;44006;52.028;4.696;2024-03-23T12:19:32;12.77;;;2.17;;
58208;SDS011;44006;52.028;4.696;2024-03-23T12:21:57;12.82;;;2.13;;
58208;SDS011;44006;52.028;4.696;2024-03-23T12:24:22;8.27;;;1.95;;
58208;SDS011;44006;52.028;4.696;2024-03-23T12:26:47;9.73;;;1.80;;
58208;SDS011;44006;52.028;4.696;2024-03-23T12:29:15;13.95;;;2.10;;
58208;SDS011;44006;52.028;4.696;2024-03-23T12:31:40;15.10;;;2.20;;
58208;SDS011;44006;52.028;4.696;2024-03-23T12:34:05;11.57;;;2.10;;
58208;SDS011;44006;52.028;4.696;2024-03-23T12:36:31;8.57;;;1.63;;
58208;SDS011;44006;52.028;4.696;2024-03-23T12:38:56;6.53;;;1.23;;
58208;SDS011;44006;52.028;4.696;2024-03-23T12:41:21;9.30;;;1.58;;
58208;SDS011;44006;52.028;4.696;2024-03-23T12:43:48;9.48;;;1.40;;
58208;SDS011;44006;52.028;4.696;2024-03-23T12:46:14;7.82;;;1.42;;
58208;SDS011;44006;52.028;4.696;2024-03-23T12:48:39;8.10;;;1.40;;
58208;SDS011;44006;52.028;4.696;2024-03-23T12:51:04;11.37;;;2.23;;
58208;SDS011;44006;52.028;4.696;2024-03-23T12:53:29;11.27;;;1.90;;
58208;SDS011;44006;52.028;4.696;2024-03-23T12:55:54;9.63;;;1.75;;
58208;SDS011;44006;52.028;4.696;2024-03-23T12:58:21;10.65;;;1.80;;
58208;SDS011;44006;52.028;4.696;2024-03-23T13:00:47;8.80;;;2.03;;
58208;SDS011;44006;52.028;4.696;2024-03-23T13:03:13;9.80;;;1.77;;
58208;SDS011;44006;52.028;4.696;2024-03-23T13:05:38;15.73;;;2.15;;
58208;SDS011;44006;52.028;4.696;2024-03-23T13:08:03;11.83;;;2.13;;
58208;SDS011;44006;52.028;4.696;2024-03-23T13:10:29;11.70;;;2.33;;
58208;SDS011;44006;52.028;4.696;2024-03-23T13:12:54;11.73;;;2.10;;
58208;SDS011;44006;52.028;4.696;2024-03-23T13:15:19;9.18;;;1.67;;
58208;SDS011;44006;52.028;4.696;2024-03-23T13:17:45;9.88;;;2.05;;
58208;SDS011;44006;52.028;4.696;2024-03-23T13:20:10;12.75;;;1.88;;
58208;SDS011;44006;52.028;4.696;2024-03-23T13:22:39;9.10;;;1.90;;
58208;SDS011;44006;52.028;4.696;2024-03-23T13:25:04;10.95;;;2.20;;
58208;SDS011;44006;52.028;4.696;2024-03-23T13:27:30;10.50;;;2.38;;
58208;SDS011;44006;52.028;4.696;2024-03-23T13:29:55;11.40;;;2.40;;
58208;SDS011;44006;52.028;4.696;2024-03-23T13:32:20;14.18;;;2.03;;
58208;SDS011;44006;52.028;4.696;2024-03-23T13:34:45;12.13;;;2.03;;
58208;SDS011;44006;52.028;4.696;2024-03-23T13:37:11;11.48;;;2.17;;
58208;SDS011;44006;52.028;4.696;2024-03-23T13:39:36;14.48;;;2.42;;
58208;SDS011;44006;52.028;4.696;2024-03-23T13:42:01;8.13;;;1.70;;
58208;SDS011;44006;52.028;4.696;2024-03-23T13:44:26;9.27;;;1.87;;
58208;SDS011;44006;52.028;4.696;2024-03-23T13:46:51;12.57;;;2.20;;
58208;SDS011;44006;52.028;4.696;2024-03-23T13:51:51;16.45;;;2.03;;
58208;SDS011;44006;52.028;4.696;2024-03-23T13:54:17;13.57;;;2.00;;
58208;SDS011;44006;52.028;4.696;2024-03-23T13:56:42;10.32;;;2.30;;
58208;SDS011;44006;52.028;4.696;2024-03-23T13:59:08;12.68;;;2.38;;
58208;SDS011;44006;52.028;4.696;2024-03-23T14:01:33;10.93;;;1.70;;
58208;SDS011;44006;52.028;4.696;2024-03-23T14:03:58;8.82;;;1.80;;
58208;SDS011;44006;52.028;4.696;2024-03-23T14:06:23;9.00;;;1.60;;
58208;SDS011;44006;52.028;4.696;2024-03-23T14:08:49;7.27;;;1.40;;
58208;SDS011;44006;52.028;4.696;2024-03-23T14:11:14;9.38;;;1.60;;
58208;SDS011;44006;52.028;4.696;2024-03-23T14:13:39;5.63;;;1.20;;
58208;SDS011;44006;52.028;4.696;2024-03-23T14:16:05;5.32;;;1.15;;
58208;SDS011;44006;52.028;4.696;2024-03-23T14:18:31;5.50;;;0.90;;
58208;SDS011;44006;52.028;4.696;2024-03-23T14:20:56;7.32;;;1.55;;
58208;SDS011;44006;52.028;4.696;2024-03-23T14:23:25;5.10;;;1.38;;
58208;SDS011;44006;52.028;4.696;2024-03-23T14:25:52;8.75;;;1.30;;
58208;SDS011;44006;52.028;4.696;2024-03-23T14:28:17;5.65;;;1.17;;
58208;SDS011;44006;52.028;4.696;2024-03-23T14:30:42;6.80;;;1.20;;
58208;SDS011;44006;52.028;4.696;2024-03-23T14:33:08;7.32;;;1.60;;
58208;SDS011;44006;52.028;4.696;2024-03-23T14:35:33;7.40;;;1.48;;
58208;SDS011;44006;52.028;4.696;2024-03-23T14:37:59;7.53;;;1.48;;
58208;SDS011;44006;52.028;4.696;2024-03-23T14:40:24;10.23;;;1.80;;
58208;SDS011;44006;52.028;4.696;2024-03-23T14:42:52;9.32;;;1.90;;
58208;SDS011;44006;52.028;4.696;2024-03-23T14:45:17;11.68;;;2.30;;
58208;SDS011;44006;52.028;4.696;2024-03-23T14:47:42;7.67;;;1.60;;
58208;SDS011;44006;52.028;4.696;2024-03-23T14:50:09;7.97;;;1.55;;
58208;SDS011;44006;52.028;4.696;2024-03-23T14:52:39;16.05;;;1.77;;
58208;SDS011;44006;52.028;4.696;2024-03-23T14:55:04;6.82;;;1.58;;
58208;SDS011;44006;52.028;4.696;2024-03-23T14:57:30;12.18;;;1.98;;
58208;SDS011;44006;52.028;4.696;2024-03-23T14:59:55;8.90;;;1.77;;
58208;SDS011;44006;52.028;4.696;2024-03-23T15:02:21;7.07;;;1.70;;
58208;SDS011;44006;52.028;4.696;2024-03-23T15:04:46;11.57;;;1.80;;
58208;SDS011;44006;52.028;4.696;2024-03-23T15:07:11;10.07;;;2.50;;
58208;SDS011;44006;52.028;4.696;2024-03-23T15:09:36;9.30;;;2.00;;
58208;SDS011;44006;52.028;4.696;2024-03-23T15:12:01;8.87;;;1.80;;
58208;SDS011;44006;52.028;4.696;2024-03-23T15:14:26;7.15;;;1.83;;
58208;SDS011;44006;52.028;4.696;2024-03-23T15:16:52;9.17;;;1.80;;
58208;SDS011;44006;52.028;4.696;2024-03-23T15:19:17;14.50;;;1.90;;
58208;SDS011;44006;52.028;4.696;2024-03-23T15:21:43;7.40;;;1.50;;
58208;SDS011;44006;52.028;4.696;2024-03-23T15:24:08;7.28;;;1.77;;
58208;SDS011;44006;52.028;4.696;2024-03-23T15:26:36;8.63;;;1.75;;
58208;SDS011;44006;52.028;4.696;2024-03-23T15:29:01;11.82;;;1.83;;
58208;SDS011;44006;52.028;4.696;2024-03-23T15:31:26;7.93;;;1.30;;
58208;SDS011;44006;52.028;4.696;2024-03-23T15:33:51;10.47;;;1.87;;
58208;SDS011;44006;52.028;4.696;2024-03-23T15:36:17;6.30;;;1.60;;